• Join FlightAware (Why Join?)
  • Login
  • US Flag 
03:20AM EDT


 

Airport Tracker/Info


-or-


 

Live Flight TrackerFlight Track Log ✈ EJA982 ✈ 02-May-2013 ✈ KSAN - KBFI

Flight Track Log - Related Links

Times and Time Zones

All times are in EDT time to prevent confusion due to time zone crossing. See the EJA982 flight status page for this flight to view local times or setup timezone preferences in your user account.

Time Position Orientation Groundspeed Altitude Reporting Facility
EDT Latitude Longitude Course Direction KTS MPH feet Rate Location/Type
09:51PM 32.7500 -117.2333 304° West 194 223 2,500  Level Southern California TRACON
09:52PM 32.7842 -117.2931 304° West 247 284 5,300 3,300 Climbing Los Angeles Center
09:53PM 32.8294 -117.3714 305° West 278 320 9,400 3,360 Climbing Los Angeles Center
09:54PM 32.8803 -117.4578 305° West 317 365 12,200 2,760 Climbing Los Angeles Center
09:55PM 32.9575 -117.5344 320° Northwest 366 421 15,100 2,520 Climbing Los Angeles Center
09:56PM 33.0519 -117.6333 319° Northwest 382 440 17,500 1,920 Climbing Los Angeles Center
09:57PM 33.1172 -117.7372 307° West 388 447 19,100 1,500 Climbing Los Angeles Center
09:58PM 33.1847 -117.8439 307° West 400 460 20,600 1,440 Climbing Los Angeles Center
09:59PM 33.2608 -117.9417 313° West 415 478 22,100 1,380 Climbing Los Angeles Center
10:00PM 33.3689 -117.9953 337° Northwest 421 484 23,500 1,320 Climbing Los Angeles Center
10:01PM 33.4789 -118.0494 338° Northwest 428 493 24,900 1,500 Climbing Los Angeles Center
10:02PM 33.6131 -118.1158 338° Northwest 437 503 26,600 1,500 Climbing Los Angeles Center
10:03PM 33.7250 -118.1700 338° Northwest 441 507 28,000 1,260 Climbing Los Angeles Center
10:04PM 33.8383 -118.2258 338° Northwest 450 518 29,300 1,080 Climbing Los Angeles Center
10:05PM 33.9522 -118.2850 337° Northwest 455 524 30,300 1,260 Climbing Los Angeles Center
10:06PM 34.0936 -118.3561 337° Northwest 462 532 32,000 1,620 Climbing Los Angeles Center
10:07PM 34.2108 -118.4158 337° Northwest 460 529 33,700 1,860 Climbing Los Angeles Center
10:08PM 34.3303 -118.4667 341° North 456 525 35,900 1,920 Climbing Los Angeles Center
10:09PM 34.4514 -118.5011 347° North 448 516 37,700 1,800 Climbing Los Angeles Center
10:10PM 34.5711 -118.5392 345° North 446 513 39,700 1,080 Climbing Los Angeles Center
10:11PM 34.6925 -118.5764 346° North 449 517 40,000 120 Climbing Los Angeles Center
10:12PM 34.8467 -118.6239 346° North 475 547 40,000  Level Los Angeles Center
10:13PM 34.9614 -118.6592 346° North 489 563 40,000  Level Los Angeles Center
10:15PM 35.1481 -118.7167 346° North 495 570 40,000  Level Los Angeles Center
10:16PM 35.2842 -118.7592 346° North 506 582 40,000  Level Los Angeles Center
10:17PM 35.4178 -118.8003 346° North 500 575 40,000  Level Los Angeles Center
10:18PM 35.5472 -118.8425 345° North 495 570 40,000  Level Los Angeles Center
10:19PM 35.6769 -118.8831 346° North 489 563 40,000  Level Los Angeles Center
10:20PM 35.8042 -118.9242 345° North 483 556 40,000  Level Oakland Center
10:21PM 35.9350 -118.9650 346° North 486 559 40,000  Level Oakland Center
10:22PM 36.0636 -119.0053 346° North 481 554 40,000  Level Oakland Center
10:23PM 36.1944 -119.0478 345° North 485 558 40,000  Level Oakland Center
10:24PM 36.3506 -119.0978 346° North 485 558 40,000  Level Oakland Center
10:25PM 36.4806 -119.1394 346° North 484 557 40,000  Level Oakland Center
10:26PM 36.6094 -119.1811 345° North 480 552 40,000  Level Oakland Center
10:27PM 36.7383 -119.2236 345° North 472 543 40,000  Level Oakland Center
10:28PM 36.8714 -119.2669 345° North 488 562 40,000  Level Oakland Center
10:29PM 37.0000 -119.3108 345° North 483 556 40,000  Level Oakland Center
10:30PM 37.1272 -119.3478 347° North 483 556 40,000  Level Oakland Center
10:31PM 37.2547 -119.3919 345° North 484 557 40,000  Level Oakland Center
10:32PM 37.3853 -119.4400 344° North 486 559 40,000  Level Oakland Center
10:33PM 37.5308 -119.4853 346° North 481 554 40,000  Level Oakland Center
10:34PM 37.6569 -119.5253 346° North 469 540 40,000  Level Oakland Center
10:35PM 37.7892 -119.5681 346° North 486 559 40,000  Level Oakland Center
10:36PM 37.9175 -119.6119 345° North 481 554 40,000  Level Oakland Center
10:37PM 38.0478 -119.6553 345° North 483 556 40,000  Level Oakland Center
10:38PM 38.1744 -119.6983 345° North 480 552 40,000  Level Oakland Center
10:39PM 38.3014 -119.7417 345° North 473 544 40,000  Level Oakland Center
10:40PM 38.4542 -119.7933 345° North 474 545 40,000  Level Oakland Center
10:41PM 38.5811 -119.8364 345° North 474 545 40,000  Level Oakland Center
10:42PM 38.7064 -119.8794 345° North 471 542 40,000  Level Oakland Center
10:43PM 38.8306 -119.9231 345° North 466 536 40,000  Level Oakland Center
10:44PM 38.9606 -119.9675 345° North 465 535 40,000  Level Oakland Center
10:45PM 39.0728 -120.0067 345° North 465 535 40,000  Level Oakland Center
10:46PM 39.2003 -120.0517 345° North 470 541 40,000  Level Oakland Center
10:47PM 39.3297 -120.0953 345° North 475 547 40,000  Level Oakland Center
10:48PM 39.4600 -120.1428 344° North 472 543 40,000  Level Oakland Center
10:49PM 39.5875 -120.1869 345° North 473 544 40,000  Level Oakland Center
10:50PM 39.7414 -120.2425 344° North 477 549 40,000  Level Oakland Center
10:51PM 39.8686 -120.2867 345° North 475 547 40,000  Level Oakland Center
10:52PM 39.9936 -120.3328 344° North 469 540 40,000  Level Oakland Center
10:53PM 40.1183 -120.3778 345° North 470 541 40,000  Level Oakland Center
10:54PM 40.2447 -120.4236 345° North 470 541 40,000  Level Oakland Center
10:55PM 40.3647 -120.4656 345° North 479 551 40,000  Level Oakland Center
10:56PM 40.4369 -120.4881 347° North 471 542 40,000  Level Seattle Center
10:57PM 40.5639 -120.5353 344° North 474 545 40,000  Level Seattle Center
10:57PM 40.6389 -120.5625 345° North 475 547 40,000  Level Oakland Center
10:58PM 40.7664 -120.6103 344° North 477 549 40,000  Level Oakland Center
10:59PM 40.8178 -120.6297 344° North 474 545 40,000  Level Seattle Center
11:00PM 40.9458 -120.6761 345° North 479 551 40,000  Level Seattle Center
11:01PM 41.0722 -120.7228 344° North 476 548 40,000  Level Seattle Center
11:02PM 41.1958 -120.7700 344° North 464 534 40,000  Level Seattle Center
11:03PM 41.3231 -120.8158 345° North 473 544 40,000  Level Seattle Center
11:04PM 41.4475 -120.8631 344° North 469 540 40,000  Level Seattle Center
11:05PM 41.5706 -120.9111 344° North 464 534 40,000  Level Seattle Center
11:06PM 41.6942 -120.9569 345° North 463 533 40,000  Level Seattle Center
11:07PM 41.8178 -121.0050 344° North 464 534 40,000  Level Seattle Center
11:08PM 41.9414 -121.0508 345° North 464 534 40,000  Level Seattle Center
11:09PM 42.0881 -121.1058 344° North 458 527 40,000  Level Seattle Center
11:10PM 42.2103 -121.1522 344° North 459 528 40,000  Level Seattle Center
11:11PM 42.3361 -121.2019 344° North 470 541 40,000  Level Seattle Center
11:12PM 42.4592 -121.2489 344° North 464 534 40,000  Level Seattle Center
11:13PM 42.5817 -121.2944 345° North 462 532 40,000  Level Seattle Center
11:14PM 42.7044 -121.3439 344° North 464 534 40,000  Level Seattle Center
11:15PM 42.8278 -121.3906 344° North 461 531 40,000  Level Seattle Center
11:16PM 42.9519 -121.4403 344° North 464 534 40,000  Level Seattle Center
11:17PM 43.0772 -121.4883 344° North 468 539 40,000  Level Seattle Center
11:18PM 43.2022 -121.5397 343° North 469 540 40,000  Level Seattle Center
11:19PM 43.3272 -121.5894 344° North 470 541 40,000  Level Seattle Center
11:20PM 43.4528 -121.6397 344° North 471 542 40,000  Level Seattle Center
11:21PM 43.5792 -121.6894 344° North 473 544 40,000  Level Seattle Center
11:22PM 43.7053 -121.7406 344° North 473 544 40,000  Level Seattle Center
11:23PM 43.8519 -121.7983 344° North 478 550 40,000  Level Seattle Center
11:24PM 43.9819 -121.8503 344° North 484 557 40,000  Level Seattle Center
11:25PM 44.1047 -121.8989 344° North 479 551 40,000  Level Seattle Center
11:26PM 44.2314 -121.9506 344° North 477 549 40,000  Level Seattle Center
11:27PM 44.3592 -122.0031 344° North 481 554 40,000  Level Seattle Center
11:28PM 44.4858 -122.0569 343° North 480 552 40,000  Level Seattle Center
11:29PM 44.6411 -122.1217 343° North 486 559 40,000  Level Seattle Center
11:30PM 44.7697 -122.1747 344° North 485 558 40,000  Level Seattle Center
11:31PM 44.8936 -122.2275 343° North 485 558 40,000  Level Seattle Center
11:32PM 45.0233 -122.2822 343° North 489 563 40,000  Level Seattle Center
11:33PM 45.1558 -122.3381 343° North 496 571 40,000  Level Seattle Center
11:34PM 45.2861 -122.3936 343° North 494 568 40,000  Level Seattle Center
11:35PM 45.4167 -122.4478 344° North 492 566 40,000 -240 Level Seattle Center
11:36PM 45.5464 -122.5042 343° North 491 565 39,600 -1,440 Descending Seattle Center
11:37PM 45.6747 -122.5592 343° North 486 559 37,100 -2,580 Descending Seattle Center
11:38PM 45.8061 -122.6064 346° North 491 565 34,500 -2,580 Descending Seattle Center
11:39PM 45.9439 -122.6394 351° North 502 578 31,900 -2,880 Descending Seattle Center
11:40PM 46.1103 -122.6833 350° North 508 585 28,700 -2,700 Descending Seattle Center
11:41PM 46.2228 -122.7125 350° North 499 574 26,500 -2,580 Descending Seattle Center
11:42PM 46.3781 -122.7517 350° North 479 551 23,500 -2,640 Descending Seattle Center
11:43PM 46.4983 -122.7819 350° North 449 517 21,200 -2,220 Descending Seattle Center
11:44PM 46.6114 -122.8117 350° North 424 488 19,000 -1,980 Descending Seattle Center
11:45PM 46.7167 -122.8383 350° North 392 451 17,200 -1,980 Descending Seattle Center
11:46PM 46.8200 -122.8628 351° North 351 404 15,000 -2,040 Descending Seattle Center
11:47PM 46.8528 -122.8703 351° North 324 373 14,300 -1,740 Descending Seattle Center
11:47PM 46.9050 -122.8842 350° North 319 367 13,300 -1,620 Descending Seattle Center
11:48PM 46.9342 -122.8947 346° North 297 342 12,700 -1,320 Descending Seattle Center
11:48PM 46.9833 -122.8817 10° North 296 341 12,000 -720 Descending Seattle Center
11:49PM 47.0072 -122.8589 33° Northeast 285 328 12,000 -240 Level Seattle Center
11:49PM 47.0458 -122.8056 43° Northeast 296 341 11,800 -1,200 Descending Seattle Center
11:50PM 47.0739 -122.7711 40° Northeast 293 337 10,800 -2,100 Descending Seattle Center
11:50PM 47.1072 -122.7283 41° Northeast 292 336 9,700 -1,620 Descending Seattle Center
11:51PM 47.1347 -122.6864 46° Northeast 284 327 9,000 -1,500 Descending Seattle Center
11:51PM 47.1550 -122.6322 61° Northeast 274 315 8,200 -1,140 Descending Seattle Center
11:52PM 47.1697 -122.5958 59° Northeast 269 310 8,000 -240 Descending Seattle Center
11:52PM 47.1925 -122.5342 61° Northeast 276 318 8,000  Level Seattle Center
11:53PM 47.2064 -122.4947 63° Northeast 282 325 8,000 -840 Level Seattle Center
11:53PM 47.2303 -122.4339 60° Northeast 279 321 7,200 -1,500 Descending Seattle Center
11:54PM 47.2442 -122.3989 60° Northeast 274 315 6,500 -1,920 Descending Seattle Center
11:54PM 47.2678 -122.3400 59° Northeast 269 310 5,300 -1,500 Descending Seattle Center
11:55PM 47.2833 -122.2992 61° Northeast 258 297 5,000 -1,020 Descending Seattle Center
11:56PM 47.3067 -122.2600 49° Northeast 237 273 4,300 -1,320 Descending Seattle Center
11:56PM 47.3286 -122.2317 41° Northeast 224 258 3,700 -1,140 Descending Seattle Center
11:57PM 47.3625 -122.2122 21° North 218 251 3,200 -540 Descending Seattle Center
11:57PM 47.3831 -122.2017 19° North 183 211 3,100 -540 Descending Seattle Center
11:58PM 47.4092 -122.2033 358° North 172 198 2,700 -1,020 Descending Seattle Center
11:58PM 47.4303 -122.2214 330° Northwest 154 177 2,100 -1,020 Descending Seattle Center
11:59PM 47.4478 -122.2336 335° Northwest 157 181 1,700 -840 Descending Seattle Center
11:59PM 47.4667 -122.2503 329° Northwest 145 167 1,300 -840 Descending Seattle Center
12:00AM 47.4814 -122.2639 328° Northwest 145 167 900 -780 Descending Seattle Center
12:00AM 47.4950 -122.2742 333° Northwest 121 139 600 -720 Descending Seattle Center
12:01AM 47.5111 -122.2875 331° Northwest 121 139 200 -360 Descending Seattle Center
12:02AM 47.5403 -122.3106 332° Northwest 121 139 100 -120 Descending Seattle Center